createdAt,value
2018-12-29T00:00:01.929Z,5.60
2018-12-29T00:02:42.601Z,5.60
2018-12-29T00:05:23.340Z,5.60
2018-12-29T00:08:04.168Z,5.60
2018-12-29T00:10:44.892Z,5.60
2018-12-29T00:13:25.513Z,5.60
2018-12-29T00:15:54.374Z,5.60
2018-12-29T00:18:42.531Z,5.60
2018-12-29T00:21:30.560Z,5.60
2018-12-29T00:24:18.940Z,5.60
2018-12-29T00:27:07.312Z,5.60
2018-12-29T00:29:55.788Z,5.70
2018-12-29T00:32:36.061Z,5.70
2018-12-29T00:35:17.552Z,5.70
2018-12-29T00:37:58.492Z,5.70
2018-12-29T00:40:38.953Z,5.70
2018-12-29T00:43:20.169Z,5.70
2018-12-29T00:46:01.056Z,5.70
2018-12-29T00:48:41.917Z,5.70
2018-12-29T00:51:22.964Z,5.70
2018-12-29T00:54:04.228Z,5.70
2018-12-29T00:56:45.334Z,5.70
2018-12-29T00:59:26.192Z,5.80
2018-12-29T01:02:14.633Z,5.80
2018-12-29T01:04:43.457Z,5.80
2018-12-29T01:10:19.118Z,5.80
2018-12-29T01:13:08.517Z,5.80
2018-12-29T01:15:50.975Z,5.80
2018-12-29T01:18:33.424Z,5.80
2018-12-29T01:21:14.160Z,5.80
2018-12-29T01:23:55.226Z,5.80
2018-12-29T01:26:35.984Z,5.80
2018-12-29T01:29:17.286Z,5.90
2018-12-29T01:31:59.218Z,5.90
2018-12-29T01:34:40.145Z,5.90
2018-12-29T01:37:28.430Z,5.90
2018-12-29T01:40:16.821Z,5.90
2018-12-29T01:43:04.834Z,5.80
2018-12-29T01:45:45.569Z,5.90
2018-12-29T01:48:26.288Z,5.90
2018-12-29T01:51:07.176Z,5.90
2018-12-29T01:53:48.497Z,5.90
2018-12-29T01:56:29.792Z,5.90
2018-12-29T01:59:11.028Z,5.90
2018-12-29T02:01:52.648Z,5.90
2018-12-29T02:04:33.521Z,5.90
2018-12-29T02:07:02.590Z,5.90
2018-12-29T02:09:50.648Z,5.90
2018-12-29T02:12:39.180Z,5.90
2018-12-29T02:15:24.703Z,5.90
2018-12-29T02:18:03.489Z,5.90
2018-12-29T02:20:44.277Z,5.90
2018-12-29T02:23:25.032Z,6.00
2018-12-29T02:26:06.468Z,6.00
2018-12-29T02:28:47.286Z,6.00
2018-12-29T02:31:28.469Z,6.00
2018-12-29T02:34:09.990Z,6.00
2018-12-29T02:36:51.315Z,6.00
2018-12-29T02:39:32.300Z,6.00
2018-12-29T02:42:12.773Z,6.00
2018-12-29T02:44:53.420Z,6.00
2018-12-29T02:47:34.243Z,6.00
2018-12-29T02:50:15.672Z,6.10
2018-12-29T02:52:57.975Z,6.00
2018-12-29T03:01:27.204Z,6.20
2018-12-29T03:03:56.308Z,6.10
2018-12-29T03:06:44.342Z,6.10
2018-12-29T03:09:32.597Z,6.10
2018-12-29T03:12:20.704Z,6.10
2018-12-29T03:15:08.981Z,6.20
2018-12-29T03:17:57.022Z,6.20
2018-12-29T03:20:38.058Z,6.10
2018-12-29T03:23:06.939Z,6.10
2018-12-29T03:25:55.249Z,6.10
2018-12-29T03:28:36.257Z,6.10
2018-12-29T03:31:18.021Z,6.00
2018-12-29T03:33:57.093Z,6.00
2018-12-29T03:36:45.327Z,6.10
2018-12-29T03:39:26.892Z,6.10
2018-12-29T03:42:07.342Z,6.10
2018-12-29T03:44:48.825Z,6.10
2018-12-29T03:47:30.157Z,6.10
2018-12-29T03:50:10.810Z,6.10
2018-12-29T03:52:51.716Z,6.10
2018-12-29T03:58:45.776Z,6.20
2018-12-29T04:01:26.176Z,6.20
2018-12-29T04:04:06.885Z,6.20
2018-12-29T04:06:47.307Z,6.20
2018-12-29T04:09:28.106Z,6.20
2018-12-29T04:12:08.753Z,6.30
2018-12-29T04:14:49.396Z,6.30
2018-12-29T04:17:18.242Z,6.30
2018-12-29T04:20:06.587Z,6.30
2018-12-29T04:22:54.624Z,6.30
2018-12-29T04:25:37.072Z,6.30
2018-12-29T04:28:18.167Z,6.30
2018-12-29T04:30:59.812Z,6.40
2018-12-29T04:33:42.637Z,6.30
2018-12-29T04:36:11.646Z,6.40
2018-12-29T04:42:06.624Z,6.40
2018-12-29T04:44:47.680Z,6.40
2018-12-29T04:47:29.532Z,6.50
2018-12-29T04:50:10.656Z,6.50
2018-12-29T04:52:51.707Z,6.50
2018-12-29T04:55:32.476Z,6.50
2018-12-29T04:58:13.297Z,6.50
2018-12-29T05:01:00.198Z,6.50
2018-12-29T05:03:43.460Z,6.40
2018-12-29T05:06:24.726Z,6.50
2018-12-29T05:09:05.445Z,6.50
2018-12-29T05:11:45.993Z,6.50
2018-12-29T05:14:31.672Z,6.50
2018-12-29T05:17:12.730Z,6.50
2018-12-29T05:19:53.924Z,6.50
2018-12-29T05:22:35.048Z,6.50
2018-12-29T05:25:16.281Z,6.60
2018-12-29T05:27:57.354Z,6.60
2018-12-29T05:33:40.225Z,6.60
2018-12-29T05:36:22.368Z,6.60
2018-12-29T05:39:05.473Z,6.60
2018-12-29T05:41:46.249Z,6.60
2018-12-29T05:44:27.518Z,6.60
2018-12-29T05:47:08.481Z,6.60
2018-12-29T05:49:49.592Z,6.70
2018-12-29T05:52:30.029Z,6.70
2018-12-29T05:55:12.029Z,6.70
2018-12-29T05:57:52.963Z,6.70
2018-12-29T06:00:22.206Z,6.70
2018-12-29T06:03:10.292Z,6.70
2018-12-29T06:05:58.809Z,6.80
2018-12-29T06:08:39.533Z,6.80
2018-12-29T06:11:20.670Z,6.80
2018-12-29T06:14:02.768Z,6.80
2018-12-29T06:16:44.444Z,6.80
2018-12-29T06:19:26.606Z,6.90
2018-12-29T06:22:11.600Z,6.90
2018-12-29T06:24:52.805Z,6.90
2018-12-29T06:27:33.537Z,6.90
2018-12-29T06:30:15.239Z,6.90
2018-12-29T06:32:55.754Z,6.90
2018-12-29T06:35:36.311Z,7.00
2018-12-29T06:38:20.146Z,7.00
2018-12-29T06:41:01.424Z,7.00
2018-12-29T06:43:42.760Z,7.00
2018-12-29T06:46:23.844Z,7.00
2018-12-29T06:49:04.975Z,7.00
2018-12-29T06:51:47.937Z,7.00
2018-12-29T06:54:29.024Z,7.00
2018-12-29T06:57:09.810Z,7.00
2018-12-29T06:59:39.007Z,7.00
2018-12-29T07:02:07.865Z,7.00
2018-12-29T07:04:49.749Z,7.00
2018-12-29T07:07:34.206Z,7.00
2018-12-29T07:10:15.665Z,7.10
2018-12-29T07:12:54.924Z,7.10
2018-12-29T07:15:36.324Z,7.10
2018-12-29T07:18:28.426Z,7.10
2018-12-29T07:20:57.622Z,7.10
2018-12-29T07:23:45.960Z,7.10
2018-12-29T07:26:28.498Z,7.10
2018-12-29T07:29:09.164Z,7.10
2018-12-29T07:31:49.680Z,7.10
2018-12-29T07:34:30.280Z,7.10
2018-12-29T07:37:11.099Z,7.10
2018-12-29T07:39:51.543Z,7.10
2018-12-29T07:42:32.316Z,7.10
2018-12-29T07:45:13.403Z,7.10
2018-12-29T07:50:50.616Z,7.10
2018-12-29T07:53:19.590Z,7.10
2018-12-29T07:59:20.537Z,7.10
2018-12-29T08:02:08.586Z,7.00
2018-12-29T08:04:37.456Z,7.00
2018-12-29T08:07:25.449Z,6.90
2018-12-29T08:10:13.830Z,6.90
2018-12-29T08:12:55.257Z,6.90
2018-12-29T08:15:35.801Z,6.90
2018-12-29T08:18:04.733Z,6.80
2018-12-29T08:20:45.964Z,6.90
2018-12-29T08:23:27.431Z,6.90
2018-12-29T08:25:56.428Z,6.90
2018-12-29T08:28:45.280Z,6.90
2018-12-29T08:31:15.412Z,6.90
2018-12-29T08:33:44.262Z,6.90
2018-12-29T08:36:13.052Z,6.90
2018-12-29T08:39:01.167Z,7.00
2018-12-29T08:41:49.239Z,7.00
2018-12-29T08:44:30.180Z,7.00
2018-12-29T08:47:10.461Z,7.00
2018-12-29T08:49:39.420Z,7.00
2018-12-29T08:52:08.415Z,7.10
2018-12-29T08:54:56.637Z,7.10
2018-12-29T08:57:25.427Z,7.10
2018-12-29T09:00:13.695Z,7.10
2018-12-29T09:02:42.485Z,7.10
2018-12-29T09:05:30.816Z,7.20
2018-12-29T09:08:11.847Z,7.20
2018-12-29T09:10:40.901Z,7.20
2018-12-29T09:13:28.883Z,7.20
2018-12-29T09:16:09.920Z,7.30
2018-12-29T09:18:38.693Z,7.30
2018-12-29T09:21:07.481Z,7.30
2018-12-29T09:23:55.616Z,7.30
2018-12-29T09:26:43.625Z,7.40
2018-12-29T09:29:12.504Z,7.40
2018-12-29T09:31:41.441Z,7.50
2018-12-29T09:34:10.235Z,7.50
2018-12-29T09:36:58.479Z,7.50
2018-12-29T09:39:40.917Z,7.60
2018-12-29T09:42:21.505Z,7.50
2018-12-29T09:45:02.583Z,7.60
2018-12-29T09:47:43.185Z,7.60
2018-12-29T09:50:12.012Z,7.60
2018-12-29T09:53:00.215Z,7.70
2018-12-29T09:55:41.295Z,7.70
2018-12-29T09:58:22.267Z,7.70
2018-12-29T10:01:03.205Z,7.70
2018-12-29T10:03:42.420Z,7.70
2018-12-29T10:06:30.434Z,7.70
2018-12-29T10:09:12.048Z,7.80
2018-12-29T10:11:52.772Z,7.80
2018-12-29T10:14:33.289Z,7.80
2018-12-29T10:17:02.176Z,7.80
2018-12-29T10:19:31.014Z,7.80
2018-12-29T10:22:19.137Z,7.80
2018-12-29T10:25:07.209Z,7.80
2018-12-29T10:27:36.162Z,7.80
2018-12-29T10:30:05.707Z,7.90
2018-12-29T10:32:53.900Z,7.90
2018-12-29T10:35:34.992Z,7.90
2018-12-29T10:38:15.988Z,8.00
2018-12-29T10:40:56.789Z,7.90
2018-12-29T10:43:37.841Z,7.90
2018-12-29T10:46:18.964Z,8.00
2018-12-29T10:49:00.085Z,8.00
2018-12-29T10:51:41.349Z,8.10
2018-12-29T10:54:22.837Z,8.10
2018-12-29T10:57:03.929Z,8.10
2018-12-29T10:59:44.938Z,8.10
2018-12-29T11:02:26.036Z,8.10
2018-12-29T11:05:07.317Z,8.10
2018-12-29T11:07:47.797Z,8.10
2018-12-29T11:10:30.330Z,8.20
2018-12-29T11:13:11.574Z,8.20
2018-12-29T11:15:40.684Z,8.20
2018-12-29T11:18:28.703Z,8.30
2018-12-29T11:21:09.293Z,8.30
2018-12-29T11:23:53.394Z,8.30
2018-12-29T11:26:33.881Z,8.30
2018-12-29T11:29:14.701Z,8.30
2018-12-29T11:31:55.592Z,8.40
2018-12-29T11:34:36.471Z,8.30
2018-12-29T11:37:17.976Z,8.30
2018-12-29T11:39:58.987Z,8.30
2018-12-29T11:42:28.045Z,8.30
2018-12-29T11:45:16.038Z,8.30
2018-12-29T11:48:04.273Z,8.20
2018-12-29T11:50:45.337Z,8.20
2018-12-29T11:53:14.398Z,8.20
2018-12-29T11:58:56.777Z,8.20
2018-12-29T12:01:27.911Z,8.20
2018-12-29T12:04:16.436Z,8.20
2018-12-29T12:06:45.332Z,8.20
2018-12-29T12:09:34.701Z,8.20
2018-12-29T12:12:22.825Z,8.20
2018-12-29T12:14:53.449Z,8.20
2018-12-29T12:17:22.279Z,8.20
2018-12-29T12:19:51.185Z,8.20
2018-12-29T12:22:41.140Z,8.20
2018-12-29T12:25:09.952Z,8.20
2018-12-29T12:27:58.252Z,8.30
2018-12-29T12:30:39.192Z,8.30
2018-12-29T12:33:08.407Z,8.30
2018-12-29T12:35:37.213Z,8.30
2018-12-29T12:38:36.050Z,8.30
2018-12-29T12:41:24.161Z,8.30
2018-12-29T12:44:07.306Z,8.30
2018-12-29T12:46:49.628Z,8.30
2018-12-29T12:49:18.494Z,8.30
2018-12-29T12:51:47.382Z,8.30
2018-12-29T12:54:16.181Z,8.30
2018-12-29T12:57:04.387Z,8.30
2018-12-29T13:03:00.783Z,8.40
2018-12-29T13:05:48.790Z,8.40
2018-12-29T13:08:36.900Z,8.40
2018-12-29T13:11:24.965Z,8.40
2018-12-29T13:14:04.219Z,8.40
2018-12-29T13:16:52.251Z,8.40
2018-12-29T13:19:33.026Z,8.40
2018-12-29T13:22:13.379Z,8.40
2018-12-29T13:24:54.327Z,8.40
2018-12-29T13:30:47.719Z,8.50
2018-12-29T13:33:16.651Z,8.50
2018-12-29T13:35:45.554Z,8.60
2018-12-29T13:38:33.585Z,8.60
2018-12-29T13:41:02.406Z,8.60
2018-12-29T13:43:50.548Z,8.60
2018-12-29T13:46:33.112Z,8.60
2018-12-29T13:49:13.838Z,8.60
2018-12-29T13:51:42.697Z,8.70
2018-12-29T13:54:30.961Z,8.70
2018-12-29T13:57:18.974Z,8.70
2018-12-29T14:00:02.057Z,8.70
2018-12-29T14:02:42.993Z,8.70
2018-12-29T14:05:12.167Z,8.70
2018-12-29T14:08:00.352Z,8.70
2018-12-29T14:10:48.640Z,8.60
2018-12-29T14:13:31.340Z,8.70
2018-12-29T14:16:00.309Z,8.70
2018-12-29T14:18:48.379Z,8.70
2018-12-29T14:21:17.277Z,8.70
2018-12-29T14:27:12.832Z,8.70
2018-12-29T14:29:53.385Z,8.70
2018-12-29T14:32:34.586Z,8.70
2018-12-29T14:35:13.738Z,8.70
2018-12-29T14:37:42.741Z,8.70
2018-12-29T14:40:31.002Z,8.70
2018-12-29T14:43:11.941Z,8.70
2018-12-29T14:45:52.988Z,8.70
2018-12-29T14:48:36.066Z,8.70
2018-12-29T14:51:16.648Z,8.70
2018-12-29T14:53:58.126Z,8.70
2018-12-29T14:56:38.585Z,8.70
2018-12-29T14:59:19.220Z,8.70
2018-12-29T15:01:59.981Z,8.70
2018-12-29T15:04:40.945Z,8.70
2018-12-29T15:07:21.661Z,8.70
2018-12-29T15:10:03.145Z,8.70
2018-12-29T15:12:44.281Z,8.70
2018-12-29T15:15:25.385Z,8.70
2018-12-29T15:18:05.934Z,8.70
2018-12-29T15:20:47.172Z,8.80
2018-12-29T15:23:16.413Z,8.80
2018-12-29T15:26:04.746Z,8.80
2018-12-29T15:28:52.995Z,8.80
2018-12-29T15:31:41.394Z,8.80
2018-12-29T15:34:29.448Z,8.80
2018-12-29T15:37:17.671Z,8.80
2018-12-29T15:39:46.457Z,8.90
2018-12-29T15:42:27.485Z,8.90
2018-12-29T15:44:56.291Z,8.90
2018-12-29T15:47:44.516Z,8.90
2018-12-29T15:50:13.353Z,9.00
2018-12-29T15:52:42.151Z,9.00
2018-12-29T15:55:30.952Z,9.00
2018-12-29T15:58:13.777Z,9.00
2018-12-29T16:00:42.654Z,9.10
2018-12-29T16:03:23.335Z,9.10
2018-12-29T16:06:04.405Z,9.10
2018-12-29T16:11:35.679Z,9.20
2018-12-29T16:14:04.604Z,9.20
2018-12-29T16:16:52.899Z,9.20
2018-12-29T16:19:33.284Z,9.30
2018-12-29T16:22:14.654Z,9.30
2018-12-29T16:24:55.560Z,9.40
2018-12-29T16:27:36.838Z,9.40
2018-12-29T16:30:07.038Z,9.40
2018-12-29T16:32:55.273Z,9.50
2018-12-29T16:35:35.917Z,9.50
2018-12-29T16:38:16.920Z,9.50
2018-12-29T16:40:58.230Z,9.50
2018-12-29T16:43:39.729Z,9.70
2018-12-29T16:46:23.816Z,9.60
2018-12-29T16:49:06.938Z,9.70
2018-12-29T16:51:47.487Z,9.70
2018-12-29T16:54:28.876Z,9.70
2018-12-29T16:57:11.895Z,9.70
2018-12-29T16:59:52.454Z,9.70
2018-12-29T17:02:33.917Z,9.70
2018-12-29T17:05:16.837Z,9.70
2018-12-29T17:07:45.662Z,9.70
2018-12-29T17:10:46.395Z,9.60
2018-12-29T17:13:17.273Z,9.60
2018-12-29T17:15:46.287Z,9.60
2018-12-29T17:18:53.669Z,9.60
2018-12-29T17:21:44.057Z,9.60
2018-12-29T17:24:27.485Z,9.70
2018-12-29T17:27:10.423Z,9.70
2018-12-29T17:29:51.765Z,9.70
2018-12-29T17:32:32.473Z,9.70
2018-12-29T17:35:02.305Z,9.80
2018-12-29T17:37:31.098Z,9.80
2018-12-29T17:43:14.432Z,9.90
2018-12-29T17:45:54.825Z,10.10
2018-12-29T17:48:24.263Z,10.10
2018-12-29T17:51:12.846Z,10.20
2018-12-29T17:53:54.740Z,10.20
2018-12-29T17:56:35.590Z,10.20
2018-12-29T17:59:04.866Z,10.20
2018-12-29T18:01:52.991Z,10.30
2018-12-29T18:04:21.996Z,10.30
2018-12-29T18:07:10.107Z,10.40
2018-12-29T18:12:49.796Z,10.40
2018-12-29T18:15:18.988Z,10.50
2018-12-29T18:17:48.109Z,10.50
2018-12-29T18:20:38.161Z,10.50
2018-12-29T18:23:27.964Z,10.40
2018-12-29T18:26:11.664Z,10.40
2018-12-29T18:28:40.597Z,10.30
2018-12-29T18:31:28.735Z,10.20
2018-12-29T18:34:16.900Z,10.10
2018-12-29T18:36:46.044Z,10.00
2018-12-29T18:39:35.329Z,10.00
2018-12-29T18:42:17.041Z,10.00
2018-12-29T18:44:56.121Z,9.90
2018-12-29T18:47:37.266Z,9.90
2018-12-29T18:50:06.583Z,9.90
2018-12-29T18:52:54.774Z,9.80
2018-12-29T18:55:42.854Z,9.70
2018-12-29T18:58:23.645Z,9.70
2018-12-29T19:01:04.548Z,9.70
2018-12-29T19:03:33.642Z,9.70
2018-12-29T19:06:21.964Z,9.80
2018-12-29T19:09:10.055Z,9.70
2018-12-29T19:11:51.573Z,9.80
2018-12-29T19:14:32.937Z,9.70
2018-12-29T19:17:05.013Z,9.70
2018-12-29T19:19:34.418Z,9.70
2018-12-29T19:22:22.434Z,9.70
2018-12-29T19:25:10.530Z,9.70
2018-12-29T19:27:50.937Z,9.70
2018-12-29T19:30:31.759Z,9.70
2018-12-29T19:33:01.000Z,9.80
2018-12-29T19:35:49.257Z,9.70
2018-12-29T19:38:39.057Z,9.70
2018-12-29T19:41:21.773Z,9.60
2018-12-29T19:44:03.331Z,9.70
2018-12-29T19:46:32.868Z,9.80
2018-12-29T19:49:01.765Z,9.80
2018-12-29T19:51:50.349Z,9.70
2018-12-29T19:54:20.898Z,9.60
2018-12-29T19:56:50.012Z,9.70
2018-12-29T19:59:38.477Z,9.60
2018-12-29T20:02:07.330Z,9.60
2018-12-29T20:04:48.054Z,9.60
2018-12-29T20:07:28.927Z,9.60
2018-12-29T20:10:09.888Z,9.70
2018-12-29T20:12:50.536Z,9.70
2018-12-29T20:15:19.913Z,9.60
2018-12-29T20:18:07.981Z,9.50
2018-12-29T20:20:56.406Z,9.40
2018-12-29T20:23:25.424Z,9.50
2018-12-29T20:25:54.212Z,9.60
2018-12-29T20:28:23.029Z,9.60
2018-12-29T20:30:51.886Z,9.50
2018-12-29T20:33:20.699Z,9.60
2018-12-29T20:36:08.929Z,9.60
2018-12-29T20:38:56.945Z,9.60
2018-12-29T20:41:26.095Z,9.50
2018-12-29T20:43:55.000Z,9.60
2018-12-29T20:46:43.463Z,9.40
2018-12-29T20:49:31.624Z,9.40
2018-12-29T20:52:20.100Z,9.30
2018-12-29T20:55:08.105Z,9.30
2018-12-29T20:57:56.452Z,9.30
2018-12-29T21:00:25.492Z,9.30
2018-12-29T21:02:54.645Z,9.40
2018-12-29T21:05:43.004Z,9.30
2018-12-29T21:08:31.100Z,9.30
2018-12-29T21:11:12.248Z,9.30
2018-12-29T21:13:53.737Z,9.30
2018-12-29T21:16:34.920Z,9.30
2018-12-29T21:19:15.324Z,9.30
2018-12-29T21:21:56.369Z,9.30
2018-12-29T21:24:37.532Z,9.30
2018-12-29T21:27:19.216Z,9.30
2018-12-29T21:30:00.486Z,9.20
2018-12-29T21:32:29.739Z,9.20
2018-12-29T21:35:18.313Z,9.30
2018-12-29T21:38:06.446Z,9.30
2018-12-29T21:40:54.666Z,9.20
2018-12-29T21:43:35.806Z,9.20
2018-12-29T21:46:05.100Z,9.20
2018-12-29T21:48:53.371Z,9.10
2018-12-29T21:51:34.342Z,9.10
2018-12-29T21:54:03.589Z,9.10
2018-12-29T21:56:32.653Z,9.10
2018-12-29T21:59:01.646Z,9.10
2018-12-29T22:01:51.526Z,9.10
2018-12-29T22:04:30.686Z,9.00
2018-12-29T22:06:59.716Z,9.00
2018-12-29T22:09:48.068Z,9.10
2018-12-29T22:12:38.236Z,9.10
2018-12-29T22:15:08.884Z,9.10
2018-12-29T22:17:57.930Z,9.10
2018-12-29T22:20:33.216Z,9.10
2018-12-29T22:22:57.544Z,9.10
2018-12-29T22:25:48.388Z,9.00
2018-12-29T22:28:35.681Z,9.00
2018-12-29T22:31:24.086Z,9.00
2018-12-29T22:34:03.601Z,9.00
2018-12-29T22:36:51.921Z,9.00
2018-12-29T22:39:32.668Z,9.00
2018-12-29T22:42:11.814Z,9.00
2018-12-29T22:45:00.155Z,9.00
2018-12-29T22:47:41.704Z,9.00
2018-12-29T22:50:23.726Z,9.00
2018-12-29T22:53:04.366Z,8.90
2018-12-29T22:55:46.544Z,9.00
2018-12-29T22:58:25.913Z,9.00
2018-12-29T23:04:02.890Z,9.00
2018-12-29T23:06:44.254Z,9.00
2018-12-29T23:09:26.345Z,9.00
2018-12-29T23:12:07.458Z,9.00
2018-12-29T23:14:48.472Z,9.10
2018-12-29T23:17:29.228Z,9.00
2018-12-29T23:20:10.988Z,9.00
2018-12-29T23:22:39.898Z,9.00
2018-12-29T23:25:28.219Z,9.00
2018-12-29T23:28:10.037Z,9.10
2018-12-29T23:30:50.938Z,9.00
2018-12-29T23:39:07.152Z,9.00
2018-12-29T23:41:55.320Z,8.90
2018-12-29T23:44:24.377Z,8.90
2018-12-29T23:46:53.196Z,9.00
2018-12-29T23:49:42.107Z,9.00
2018-12-29T23:52:24.718Z,9.00
2018-12-29T23:55:06.304Z,8.90
2018-12-29T23:57:47.098Z,9.00
